XAJES MMUN-MMCZ
Flight info
| Callsign | XAJES |
|---|---|
| Flight time | 0h 14m |
| Altitude | 4000 |
| Route | CZM |
| Aircraft | C208/L-SDFGR/C |
Departure
| Time | 2026-04-29 05:31 |
|---|---|
| Airport | Cancún International Airport (MMUN) |
Arrival
| Time | 2026-04-29 05:46 |
|---|---|
| Airport | Cozumel International Airport (MMCZ) |
| Time | Latitude | Longitude | Altitude | Speed | Heading |
|---|---|---|---|---|---|
| 2026-04-29 05:11 | 21.03402 | -86.86483 | 42 ft | 0 kts | 125° |
| 2026-04-29 05:23 | 21.03369 | -86.86462 | 42 ft | 16 kts | 178° |
| 2026-04-29 05:23 | 21.03328 | -86.86560 | 42 ft | 21 kts | 308° |
| 2026-04-29 05:24 | 21.03449 | -86.86559 | 42 ft | 17 kts | 40° |
| 2026-04-29 05:24 | 21.03501 | -86.86519 | 42 ft | 4 kts | 30° |
| 2026-04-29 05:24 | 21.03513 | -86.86515 | 42 ft | 0 kts | 352° |
| 2026-04-29 05:25 | 21.03517 | -86.86516 | 42 ft | 5 kts | 341° |
| 2026-04-29 05:25 | 21.03526 | -86.86580 | 42 ft | 13 kts | 217° |
| 2026-04-29 05:25 | 21.03440 | -86.86639 | 42 ft | 12 kts | 219° |
| 2026-04-29 05:25 | 21.03360 | -86.86696 | 41 ft | 15 kts | 210° |
| 2026-04-29 05:26 | 21.03273 | -86.86771 | 40 ft | 15 kts | 258° |
| 2026-04-29 05:26 | 21.03327 | -86.86860 | 40 ft | 15 kts | 304° |
| 2026-04-29 05:26 | 21.03411 | -86.86995 | 40 ft | 27 kts | 303° |
| 2026-04-29 05:26 | 21.03537 | -86.87195 | 41 ft | 29 kts | 303° |
| 2026-04-29 05:27 | 21.03627 | -86.87339 | 41 ft | 19 kts | 303° |
| 2026-04-29 05:27 | 21.03730 | -86.87504 | 41 ft | 10 kts | 304° |
| 2026-04-29 05:27 | 21.03770 | -86.87567 | 41 ft | 11 kts | 303° |
| 2026-04-29 05:28 | 21.03820 | -86.87647 | 41 ft | 14 kts | 304° |
| 2026-04-29 05:28 | 21.03879 | -86.87746 | 41 ft | 17 kts | 303° |
| 2026-04-29 05:28 | 21.03951 | -86.87855 | 40 ft | 19 kts | 303° |
| 2026-04-29 05:28 | 21.04028 | -86.87978 | 40 ft | 20 kts | 306° |
| 2026-04-29 05:29 | 21.04112 | -86.88105 | 40 ft | 22 kts | 308° |
| 2026-04-29 05:29 | 21.04184 | -86.88229 | 40 ft | 15 kts | 300° |
| 2026-04-29 05:29 | 21.04192 | -86.88301 | 40 ft | 9 kts | 212° |
| 2026-04-29 05:29 | 21.04126 | -86.88341 | 38 ft | 10 kts | 212° |
| 2026-04-29 05:30 | 21.04071 | -86.88362 | 37 ft | 9 kts | 146° |
| 2026-04-29 05:30 | 21.03986 | -86.88227 | 36 ft | 53 kts | 124° |
| 2026-04-29 05:30 | 21.03797 | -86.87926 | 37 ft | 91 kts | 124° |
| 2026-04-29 05:30 | 21.03401 | -86.87278 | 235 ft | 109 kts | 123° |
| 2026-04-29 05:31 | 21.02906 | -86.86627 | 411 ft | 115 kts | 144° |
| 2026-04-29 05:31 | 21.01827 | -86.86445 | 622 ft | 126 kts | 183° |
| 2026-04-29 05:31 | 21.01229 | -86.86500 | 702 ft | 130 kts | 184° |
| 2026-04-29 05:31 | 21.00321 | -86.86635 | 794 ft | 137 kts | 187° |
| 2026-04-29 05:32 | 20.99425 | -86.87004 | 804 ft | 148 kts | 222° |
| 2026-04-29 05:32 | 20.98864 | -86.87950 | 792 ft | 154 kts | 231° |
| 2026-04-29 05:32 | 20.97940 | -86.88507 | 792 ft | 153 kts | 190° |
| 2026-04-29 05:32 | 20.96902 | -86.88679 | 827 ft | 154 kts | 187° |
| 2026-04-29 05:33 | 20.95789 | -86.88847 | 583 ft | 167 kts | 187° |
| 2026-04-29 05:33 | 20.94614 | -86.89022 | 407 ft | 169 kts | 187° |
| 2026-04-29 05:33 | 20.93485 | -86.89192 | 406 ft | 162 kts | 187° |
| 2026-04-29 05:33 | 20.92376 | -86.89359 | 397 ft | 159 kts | 187° |
| 2026-04-29 05:34 | 20.91315 | -86.89520 | 588 ft | 146 kts | 187° |
| 2026-04-29 05:34 | 20.90340 | -86.89668 | 791 ft | 141 kts | 187° |
| 2026-04-29 05:34 | 20.89341 | -86.89824 | 795 ft | 147 kts | 188° |
| 2026-04-29 05:34 | 20.88312 | -86.89988 | 794 ft | 151 kts | 187° |
| 2026-04-29 05:35 | 20.87282 | -86.90148 | 799 ft | 152 kts | 187° |
| 2026-04-29 05:35 | 20.86225 | -86.90313 | 799 ft | 155 kts | 187° |
| 2026-04-29 05:35 | 20.85149 | -86.90481 | 800 ft | 156 kts | 186° |
| 2026-04-29 05:35 | 20.84079 | -86.90662 | 797 ft | 158 kts | 187° |
| 2026-04-29 05:36 | 20.82992 | -86.90867 | 801 ft | 159 kts | 187° |
| 2026-04-29 05:36 | 20.81904 | -86.91070 | 798 ft | 158 kts | 187° |
| 2026-04-29 05:36 | 20.80824 | -86.91271 | 798 ft | 158 kts | 187° |
| 2026-04-29 05:36 | 20.79738 | -86.91474 | 799 ft | 158 kts | 187° |
| 2026-04-29 05:37 | 20.78671 | -86.91672 | 799 ft | 158 kts | 187° |
| 2026-04-29 05:37 | 20.77588 | -86.91876 | 799 ft | 157 kts | 187° |
| 2026-04-29 05:37 | 20.76506 | -86.92080 | 800 ft | 158 kts | 187° |
| 2026-04-29 05:37 | 20.75434 | -86.92280 | 800 ft | 158 kts | 187° |
| 2026-04-29 05:38 | 20.74345 | -86.92484 | 800 ft | 158 kts | 187° |
| 2026-04-29 05:38 | 20.73264 | -86.92658 | 797 ft | 156 kts | 181° |
| 2026-04-29 05:38 | 20.72184 | -86.92678 | 795 ft | 156 kts | 177° |
| 2026-04-29 05:38 | 20.71084 | -86.92678 | 792 ft | 160 kts | 177° |
| 2026-04-29 05:39 | 20.69957 | -86.92676 | 795 ft | 163 kts | 177° |
| 2026-04-29 05:39 | 20.68831 | -86.92675 | 796 ft | 163 kts | 177° |
| 2026-04-29 05:39 | 20.67685 | -86.92651 | 795 ft | 164 kts | 175° |
| 2026-04-29 05:39 | 20.66542 | -86.92600 | 794 ft | 163 kts | 174° |
| 2026-04-29 05:40 | 20.65417 | -86.92589 | 795 ft | 163 kts | 176° |
| 2026-04-29 05:40 | 20.64274 | -86.92575 | 798 ft | 164 kts | 181° |
| 2026-04-29 05:40 | 20.63132 | -86.92686 | 799 ft | 165 kts | 183° |
| 2026-04-29 05:40 | 20.61998 | -86.92808 | 800 ft | 165 kts | 183° |
| 2026-04-29 05:41 | 20.60851 | -86.92935 | 800 ft | 165 kts | 183° |
| 2026-04-29 05:41 | 20.59707 | -86.93060 | 800 ft | 165 kts | 183° |
| 2026-04-29 05:41 | 20.58562 | -86.93185 | 801 ft | 165 kts | 183° |
| 2026-04-29 05:41 | 20.57416 | -86.93312 | 800 ft | 165 kts | 183° |
| 2026-04-29 05:42 | 20.56286 | -86.93436 | 800 ft | 165 kts | 183° |
| 2026-04-29 05:42 | 20.55143 | -86.93562 | 801 ft | 165 kts | 183° |
| 2026-04-29 05:42 | 20.53997 | -86.93683 | 747 ft | 165 kts | 178° |
| 2026-04-29 05:42 | 20.52882 | -86.93407 | 548 ft | 166 kts | 146° |
| 2026-04-29 05:43 | 20.52222 | -86.92466 | 426 ft | 162 kts | 115° |
| 2026-04-29 05:43 | 20.51944 | -86.91271 | 362 ft | 165 kts | 98° |
| 2026-04-29 05:43 | 20.51689 | -86.90121 | 643 ft | 146 kts | 107° |
| 2026-04-29 05:43 | 20.51351 | -86.89083 | 625 ft | 142 kts | 117° |
| 2026-04-29 05:44 | 20.50613 | -86.88484 | 694 ft | 142 kts | 163° |
| 2026-04-29 05:44 | 20.49656 | -86.88743 | 724 ft | 149 kts | 217° |
| 2026-04-29 05:44 | 20.49057 | -86.89654 | 729 ft | 154 kts | 253° |
| 2026-04-29 05:44 | 20.49235 | -86.90689 | 620 ft | 144 kts | 310° |
| 2026-04-29 05:45 | 20.50010 | -86.91249 | 435 ft | 125 kts | 340° |
| 2026-04-29 05:45 | 20.50763 | -86.91609 | 175 ft | 115 kts | 333° |
| 2026-04-29 05:45 | 20.51199 | -86.92201 | 41 ft | 91 kts | 297° |
| 2026-04-29 05:45 | 20.51425 | -86.92694 | 22 ft | 52 kts | 296° |
| 2026-04-29 05:46 | 20.51569 | -86.93007 | 20 ft | 42 kts | 297° |
| 2026-04-29 05:46 | 20.51660 | -86.93210 | 18 ft | 13 kts | 314° |
| 2026-04-29 05:46 | 20.51721 | -86.93186 | 16 ft | 11 kts | 31° |
| 2026-04-29 05:46 | 20.51780 | -86.93215 | 17 ft | 11 kts | 294° |
| 2026-04-29 05:47 | 20.51815 | -86.93290 | 18 ft | 11 kts | 298° |
| 2026-04-29 05:47 | 20.51848 | -86.93367 | 19 ft | 12 kts | 294° |
| 2026-04-29 05:47 | 20.51884 | -86.93448 | 20 ft | 12 kts | 297° |
| 2026-04-29 05:47 | 20.51918 | -86.93526 | 22 ft | 11 kts | 295° |
| 2026-04-29 05:48 | 20.51951 | -86.93595 | 24 ft | 10 kts | 296° |
| 2026-04-29 05:48 | 20.51988 | -86.93678 | 25 ft | 14 kts | 295° |
| 2026-04-29 05:48 | 20.52054 | -86.93741 | 29 ft | 13 kts | 15° |
| 2026-04-29 05:48 | 20.52119 | -86.93719 | 29 ft | 8 kts | 49° |
| 2026-04-29 05:49 | 20.52130 | -86.93660 | 29 ft | 9 kts | 78° |
| 2026-04-29 05:49 | 20.52167 | -86.93649 | 31 ft | 6 kts | 302° |
| 2026-04-29 05:49 | 20.52167 | -86.93683 | 32 ft | 2 kts | 265° |
| 2026-04-29 05:49 | 20.52167 | -86.93685 | 32 ft | 0 kts | 269° |